Time,TemperatureF,DewpointF,PressureIn,WindDirection,WindDirectionDegrees,WindSpeedMPH,WindSpeedGustMPH,Humidity,HourlyPrecipIn,Conditions,Clouds,dailyrainin,SolarRadiationWatts/m^2,SoftwareType,DateUTC
2013-09-04 00:00:00,62.4,56.8,30.03,WNW,285,1.0,1.0,82,0.00,,,0.00,0,Wunderground v.1.15,2013-09-04 04:00:00,
2013-09-04 00:05:00,61.9,56.0,30.02,WNW,285,0.0,1.0,81,0.00,,,0.00,0,Wunderground v.1.15,2013-09-04 04:05:00,
2013-09-04 00:10:00,61.4,56.2,30.02,WNW,285,0.0,0.0,83,0.00,,,0.00,0,Wunderground v.1.15,2013-09-04 04:10:00,
2013-09-04 00:20:00,60.4,55.5,30.03,WNW,285,0.0,0.0,84,0.00,,,0.00,0,Wunderground v.1.15,2013-09-04 04:20:00,
2013-09-04 00:30:00,59.6,55.1,30.03,WNW,285,0.0,0.0,85,0.00,,,0.00,0,Wunderground v.1.15,2013-09-04 04:30:00,
2013-09-04 00:40:00,58.7,54.2,30.03,WNW,285,0.0,0.0,85,0.00,,,0.00,0,Wunderground v.1.15,2013-09-04 04:40:00,
2013-09-04 00:45:00,58.1,53.6,30.03,WNW,285,0.0,0.0,85,0.00,,,0.00,0,Wunderground v.1.15,2013-09-04 04:45:00,
2013-09-04 00:55:00,58.1,54.9,30.04,WNW,285,0.0,0.0,89,0.00,,,0.00,0,Wunderground v.1.15,2013-09-04 04:55:00,
2013-09-04 01:05:00,57.7,54.2,30.04,WNW,285,0.0,0.0,88,0.00,,,0.00,0,Wunderground v.1.15,2013-09-04 05:05:00,
2013-09-04 01:15:00,56.9,53.4,30.04,WNW,285,0.0,0.0,88,0.00,,,0.00,0,Wunderground v.1.15,2013-09-04 05:15:00,
2013-09-04 01:20:00,56.6,53.1,30.04,WNW,285,0.0,0.0,88,0.00,,,0.00,0,Wunderground v.1.15,2013-09-04 05:20:00,
2013-09-04 01:30:00,56.3,53.4,30.04,WNW,285,0.0,1.0,90,0.00,,,0.00,0,Wunderground v.1.15,2013-09-04 05:30:00,
2013-09-04 01:40:00,56.4,54.4,30.05,WNW,285,0.0,0.0,93,0.00,,,0.00,0,Wunderground v.1.15,2013-09-04 05:40:00,
2013-09-04 01:50:00,56.7,54.4,30.05,WNW,285,0.0,0.0,92,0.00,,,0.00,0,Wunderground v.1.15,2013-09-04 05:50:00,
2013-09-04 02:00:00,56.8,54.8,30.05,WNW,285,0.0,0.0,93,0.00,,,0.00,0,Wunderground v.1.15,2013-09-04 06:00:00,
2013-09-04 02:05:00,56.9,54.9,30.05,WNW,285,0.0,0.0,93,0.00,,,0.00,0,Wunderground v.1.15,2013-09-04 06:05:00,
2013-09-04 02:15:00,56.9,54.9,30.04,WNW,285,0.0,0.0,93,0.00,,,0.00,0,Wunderground v.1.15,2013-09-04 06:15:00,
2013-09-04 02:25:00,56.4,53.8,30.05,WNW,285,0.0,0.0,91,0.00,,,0.00,0,Wunderground v.1.15,2013-09-04 06:25:00,
2013-09-04 02:35:00,55.8,53.2,30.04,WNW,285,0.0,0.0,91,0.00,,,0.00,0,Wunderground v.1.15,2013-09-04 06:35:00,
2013-09-04 02:45:00,55.2,52.6,30.04,WNW,285,0.0,0.0,91,0.00,,,0.00,0,Wunderground v.1.15,2013-09-04 06:45:00,
2013-09-04 02:55:00,54.7,52.1,30.05,WNW,285,0.0,0.0,91,0.00,,,0.00,0,Wunderground v.1.15,2013-09-04 06:55:00,
2013-09-04 03:05:00,54.4,52.4,30.05,WNW,285,0.0,0.0,93,0.00,,,0.00,0,Wunderground v.1.15,2013-09-04 07:05:00,
2013-09-04 03:15:00,54.8,53.1,30.05,WNW,285,0.0,0.0,94,0.00,,,0.00,0,Wunderground v.1.15,2013-09-04 07:15:00,
2013-09-04 03:20:00,55.1,53.4,30.05,WNW,285,0.0,0.0,94,0.00,,,0.00,0,Wunderground v.1.15,2013-09-04 07:20:00,
2013-09-04 03:30:00,55.1,53.1,30.06,WNW,285,0.0,0.0,93,0.00,,,0.00,0,Wunderground v.1.15,2013-09-04 07:30:00,
2013-09-04 03:40:00,54.6,52.6,30.06,WNW,285,0.0,0.0,93,0.00,,,0.00,0,Wunderground v.1.15,2013-09-04 07:40:00,
2013-09-04 03:50:00,53.9,51.9,30.06,WNW,285,0.0,0.0,93,0.00,,,0.00,0,Wunderground v.1.15,2013-09-04 07:50:00,
2013-09-04 03:55:00,53.8,52.1,30.06,WNW,285,0.0,0.0,94,0.00,,,0.00,0,Wunderground v.1.15,2013-09-04 07:55:00,
2013-09-04 04:05:00,53.7,52.0,30.07,WNW,285,0.0,0.0,94,0.00,,,0.00,0,Wunderground v.1.15,2013-09-04 08:05:00,
2013-09-04 04:15:00,53.3,51.3,30.07,WNW,285,0.0,0.0,93,0.00,,,0.00,0,Wunderground v.1.15,2013-09-04 08:15:00,
2013-09-04 04:25:00,53.1,51.4,30.07,WNW,285,0.0,0.0,94,0.00,,,0.00,0,Wunderground v.1.15,2013-09-04 08:25:00,
2013-09-04 04:35:00,52.8,51.1,30.07,WNW,285,0.0,0.0,94,0.00,,,0.00,0,Wunderground v.1.15,2013-09-04 08:35:00,
2013-09-04 04:45:00,52.5,50.8,30.07,WNW,285,0.0,0.0,94,0.00,,,0.00,0,Wunderground v.1.15,2013-09-04 08:45:00,
2013-09-04 04:55:00,52.2,50.5,30.07,WNW,285,0.0,0.0,94,0.00,,,0.00,0,Wunderground v.1.15,2013-09-04 08:55:00,
2013-09-04 05:05:00,51.9,50.2,30.07,WNW,285,0.0,0.0,94,0.00,,,0.00,0,Wunderground v.1.15,2013-09-04 09:05:00,
2013-09-04 05:15:00,52.2,50.8,30.07,WNW,285,0.0,0.0,95,0.00,,,0.00,0,Wunderground v.1.15,2013-09-04 09:15:00,
2013-09-04 05:25:00,52.0,50.6,30.07,WNW,285,0.0,0.0,95,0.00,,,0.00,0,Wunderground v.1.15,2013-09-04 09:25:00,
2013-09-04 05:35:00,51.5,49.8,30.07,WNW,285,0.0,0.0,94,0.00,,,0.00,0,Wunderground v.1.15,2013-09-04 09:35:00,
2013-09-04 05:45:00,51.4,50.0,30.07,WNW,285,0.0,0.0,95,0.00,,,0.00,0,Wunderground v.1.15,2013-09-04 09:45:00,
2013-09-04 05:50:00,51.3,49.9,30.07,WNW,285,0.0,0.0,95,0.00,,,0.00,0,Wunderground v.1.15,2013-09-04 09:50:00,
2013-09-04 06:00:00,51.2,49.8,30.07,WNW,285,0.0,0.0,95,0.00,,,0.00,0,Wunderground v.1.15,2013-09-04 10:00:00,
2013-09-04 06:10:00,51.1,49.7,30.07,WNW,285,0.0,0.0,95,0.00,,,0.00,0,Wunderground v.1.15,2013-09-04 10:10:00,
2013-09-04 06:20:00,50.9,49.5,30.08,WNW,285,0.0,0.0,95,0.00,,,0.00,0,Wunderground v.1.15,2013-09-04 10:20:00,
2013-09-04 06:25:00,50.9,49.5,30.08,WNW,285,0.0,0.0,95,0.00,,,0.00,0,Wunderground v.1.15,2013-09-04 10:25:00,
2013-09-04 06:35:00,50.8,49.4,30.08,WNW,285,0.0,0.0,95,0.00,,,0.00,0,Wunderground v.1.15,2013-09-04 10:35:00,
2013-09-04 06:45:00,51.2,50.1,30.08,WNW,285,0.0,0.0,96,0.00,,,0.00,0,Wunderground v.1.15,2013-09-04 10:45:00,
2013-09-04 06:55:00,51.5,50.4,30.08,WNW,285,0.0,0.0,96,0.00,,,0.00,0,Wunderground v.1.15,2013-09-04 10:55:00,
2013-09-04 07:05:00,51.2,49.8,30.09,WNW,285,0.0,0.0,95,0.00,,,0.00,0,Wunderground v.1.15,2013-09-04 11:05:00,
2013-09-04 07:15:00,51.1,50.0,30.09,WNW,285,0.0,0.0,96,0.00,,,0.00,7,Wunderground v.1.15,2013-09-04 11:15:00,
2013-09-04 07:25:00,51.5,50.4,30.10,WNW,285,0.0,0.0,96,0.00,,,0.00,14,Wunderground v.1.15,2013-09-04 11:25:00,
2013-09-04 07:35:00,51.8,50.7,30.10,WNW,285,0.0,0.0,96,0.00,,,0.00,26,Wunderground v.1.15,2013-09-04 11:35:00,
2013-09-04 07:45:00,53.4,52.6,30.10,WNW,285,1.0,1.0,97,0.00,,,0.00,46,Wunderground v.1.15,2013-09-04 11:45:00,
2013-09-04 07:55:00,54.5,53.7,30.11,WNW,284,1.0,1.0,97,0.00,,,0.00,69,Wunderground v.1.15,2013-09-04 11:55:00,
2013-09-04 08:05:00,54.9,54.1,30.11,WNW,284,0.0,1.0,97,0.00,,,0.00,95,Wunderground v.1.15,2013-09-04 12:05:00,
2013-09-04 08:15:00,55.6,54.8,30.11,WNW,284,0.0,0.0,97,0.00,,,0.00,123,Wunderground v.1.15,2013-09-04 12:15:00,
2013-09-04 08:25:00,56.3,55.5,30.11,WNW,284,0.0,2.0,97,0.00,,,0.00,160,Wunderground v.1.15,2013-09-04 12:25:00,
2013-09-04 08:35:00,57.2,56.4,30.11,WNW,284,1.0,2.0,97,0.00,,,0.00,188,Wunderground v.1.15,2013-09-04 12:35:00,
2013-09-04 08:45:00,58.2,57.4,30.11,WNW,284,1.0,1.0,97,0.00,,,0.00,213,Wunderground v.1.15,2013-09-04 12:45:00,
2013-09-04 08:55:00,59.4,58.3,30.11,WNW,283,2.0,2.0,96,0.00,,,0.00,243,Wunderground v.1.15,2013-09-04 12:55:00,
2013-09-04 09:05:00,60.6,58.9,30.10,West,281,2.0,2.0,94,0.00,,,0.00,279,Wunderground v.1.15,2013-09-04 13:05:00,
2013-09-04 09:15:00,62.1,59.4,30.11,WSW,248,2.0,3.0,91,0.00,,,0.00,320,Wunderground v.1.15,2013-09-04 13:15:00,
2013-09-04 09:25:00,63.6,59.7,30.11,West,261,2.0,4.0,87,0.00,,,0.00,355,Wunderground v.1.15,2013-09-04 13:25:00,
2013-09-04 09:35:00,65.2,59.9,30.11,WSW,250,2.0,2.0,83,0.00,,,0.00,394,Wunderground v.1.15,2013-09-04 13:35:00,
2013-09-04 09:45:00,66.5,60.5,30.11,WSW,252,2.0,3.0,81,0.00,,,0.00,424,Wunderground v.1.15,2013-09-04 13:45:00,
2013-09-04 09:55:00,67.5,60.0,30.11,West,259,3.0,3.0,77,0.00,,,0.00,450,Wunderground v.1.15,2013-09-04 13:55:00,
2013-09-04 10:05:00,68.5,59.9,30.11,West,263,3.0,5.0,74,0.00,,,0.00,478,Wunderground v.1.15,2013-09-04 14:05:00,
2013-09-04 10:10:00,68.8,60.2,30.11,WNW,293,3.0,5.0,74,0.00,,,0.00,494,Wunderground v.1.15,2013-09-04 14:10:00,
2013-09-04 10:20:00,69.7,59.9,30.11,West,273,4.0,4.0,71,0.00,,,0.00,520,Wunderground v.1.15,2013-09-04 14:20:00,
2013-09-04 10:30:00,70.5,60.2,30.11,WSW,243,3.0,3.0,70,0.00,,,0.00,545,Wunderground v.1.15,2013-09-04 14:30:00,
2013-09-04 10:40:00,70.8,60.1,30.11,WNW,298,4.0,5.0,69,0.00,,,0.00,543,Wunderground v.1.15,2013-09-04 14:40:00,
2013-09-04 10:50:00,71.4,59.4,30.11,WSW,252,5.0,8.0,66,0.00,,,0.00,585,Wunderground v.1.15,2013-09-04 14:50:00,
2013-09-04 11:00:00,72.0,60.0,30.11,WSW,258,5.0,5.0,66,0.00,,,0.00,613,Wunderground v.1.15,2013-09-04 15:00:00,
2013-09-04 11:10:00,72.4,59.5,30.11,West,263,4.0,4.0,64,0.00,,,0.00,631,Wunderground v.1.15,2013-09-04 15:10:00,
2013-09-04 11:20:00,72.9,59.1,30.10,WSW,254,5.0,7.0,62,0.00,,,0.00,654,Wunderground v.1.15,2013-09-04 15:20:00,
2013-09-04 11:25:00,73.0,59.2,30.10,WSW,243,5.0,7.0,62,0.00,,,0.00,664,Wunderground v.1.15,2013-09-04 15:25:00,
2013-09-04 11:35:00,73.3,59.0,30.10,WNW,298,5.0,5.0,61,0.00,,,0.00,677,Wunderground v.1.15,2013-09-04 15:35:00,
2013-09-04 11:45:00,74.2,59.4,30.11,NW,317,5.0,9.0,60,0.00,,,0.00,691,Wunderground v.1.15,2013-09-04 15:45:00,
2013-09-04 11:55:00,74.0,58.8,30.10,West,279,6.0,6.0,59,0.00,,,0.00,710,Wunderground v.1.15,2013-09-04 15:55:00,
2013-09-04 12:00:00,74.3,58.6,30.10,West,275,6.0,6.0,58,0.00,,,0.00,719,Wunderground v.1.15,2013-09-04 16:00:00,
2013-09-04 12:10:00,74.8,58.1,30.10,West,265,5.0,5.0,56,0.00,,,0.00,724,Wunderground v.1.15,2013-09-04 16:10:00,
2013-09-04 12:20:00,75.0,57.7,30.10,NW,304,6.0,7.0,55,0.00,,,0.00,737,Wunderground v.1.15,2013-09-04 16:20:00,
2013-09-04 12:30:00,75.5,57.7,30.09,WSW,248,5.0,10.0,54,0.00,,,0.00,754,Wunderground v.1.15,2013-09-04 16:30:00,
2013-09-04 12:40:00,75.4,58.1,30.09,WNW,286,5.0,5.0,55,0.00,,,0.00,759,Wunderground v.1.15,2013-09-04 16:40:00,
2013-09-04 12:50:00,75.5,58.2,30.09,West,263,5.0,5.0,55,0.00,,,0.00,768,Wunderground v.1.15,2013-09-04 16:50:00,
2013-09-04 13:00:00,75.9,57.5,30.09,West,260,5.0,5.0,53,0.00,,,0.00,777,Wunderground v.1.15,2013-09-04 17:00:00,
2013-09-04 13:10:00,76.5,57.6,30.09,West,269,5.0,5.0,52,0.00,,,0.00,777,Wunderground v.1.15,2013-09-04 17:10:00,
2013-09-04 13:20:00,76.9,57.9,30.09,WSW,250,5.0,5.0,52,0.00,,,0.00,779,Wunderground v.1.15,2013-09-04 17:20:00,
2013-09-04 13:30:00,77.3,57.8,30.09,NW,312,5.0,8.0,51,0.00,,,0.00,780,Wunderground v.1.15,2013-09-04 17:30:00,
2013-09-04 13:40:00,77.8,58.8,30.08,SSW,201,5.0,6.0,52,0.00,,,0.00,782,Wunderground v.1.15,2013-09-04 17:40:00,
2013-09-04 13:50:00,78.3,58.1,30.09,WSW,254,5.0,5.0,50,0.00,,,0.00,782,Wunderground v.1.15,2013-09-04 17:50:00,
2013-09-04 14:00:00,78.4,57.7,30.09,WNW,302,6.0,6.0,49,0.00,,,0.00,782,Wunderground v.1.15,2013-09-04 18:00:00,
2013-09-04 14:10:00,78.7,57.9,30.09,NW,312,6.0,7.0,49,0.00,,,0.00,752,Wunderground v.1.15,2013-09-04 18:10:00,
2013-09-04 14:20:00,79.0,57.6,30.08,WNW,298,7.0,7.0,48,0.00,,,0.00,773,Wunderground v.1.15,2013-09-04 18:20:00,
2013-09-04 14:30:00,79.4,58.0,30.08,NW,315,6.0,6.0,48,0.00,,,0.00,766,Wunderground v.1.15,2013-09-04 18:30:00,
2013-09-04 14:40:00,79.6,58.2,30.08,West,269,5.0,5.0,48,0.00,,,0.00,759,Wunderground v.1.15,2013-09-04 18:40:00,
2013-09-04 14:50:00,79.9,57.9,30.08,WSW,248,5.0,6.0,47,0.00,,,0.00,747,Wunderground v.1.15,2013-09-04 18:50:00,
2013-09-04 15:00:00,80.3,57.0,30.08,West,261,5.0,5.0,45,0.00,,,0.00,737,Wunderground v.1.15,2013-09-04 19:00:00,
2013-09-04 15:10:00,80.0,58.0,30.07,WNW,288,6.0,11.0,47,0.00,,,0.00,722,Wunderground v.1.15,2013-09-04 19:10:00,
2013-09-04 15:20:00,80.5,59.0,30.07,WSW,250,6.0,6.0,48,0.00,,,0.00,700,Wunderground v.1.15,2013-09-04 19:20:00,
2013-09-04 15:30:00,80.7,59.8,30.07,WNW,283,5.0,5.0,49,0.00,,,0.00,686,Wunderground v.1.15,2013-09-04 19:30:00,
2013-09-04 15:40:00,81.1,57.7,30.06,NW,321,5.0,7.0,45,0.00,,,0.00,691,Wunderground v.1.15,2013-09-04 19:40:00,
2013-09-04 15:50:00,81.4,58.0,30.06,WSW,256,4.0,4.0,45,0.00,,,0.00,622,Wunderground v.1.15,2013-09-04 19:50:00,
2013-09-04 16:00:00,81.2,57.8,30.07,West,269,6.0,6.0,45,0.00,,,0.00,582,Wunderground v.1.15,2013-09-04 20:00:00,
2013-09-04 16:10:00,81.1,58.4,30.07,WNW,290,6.0,6.0,46,0.00,,,0.00,617,Wunderground v.1.15,2013-09-04 20:10:00,
2013-09-04 16:20:00,81.1,59.6,30.06,West,267,6.0,6.0,48,0.00,,,0.00,650,Wunderground v.1.15,2013-09-04 20:20:00,
2013-09-04 16:30:00,81.2,58.5,30.07,NW,310,6.0,8.0,46,0.00,,,0.00,417,Wunderground v.1.15,2013-09-04 20:30:00,
2013-09-04 16:40:00,81.1,59.6,30.06,WNW,302,6.0,6.0,48,0.00,,,0.00,571,Wunderground v.1.15,2013-09-04 20:40:00,
2013-09-04 16:50:00,81.4,59.8,30.06,NW,317,4.0,11.0,48,0.00,,,0.00,380,Wunderground v.1.15,2013-09-04 20:50:00,
2013-09-04 17:00:00,80.9,58.8,30.06,WSW,256,6.0,6.0,47,0.00,,,0.00,251,Wunderground v.1.15,2013-09-04 21:00:00,
2013-09-04 17:10:00,80.4,57.7,30.06,NW,310,5.0,7.0,46,0.00,,,0.00,411,Wunderground v.1.15,2013-09-04 21:10:00,
2013-09-04 17:20:00,80.5,57.8,30.06,WNW,300,5.0,5.0,46,0.00,,,0.00,167,Wunderground v.1.15,2013-09-04 21:20:00,
2013-09-04 17:30:00,79.7,58.3,30.06,WNW,283,5.0,5.0,48,0.00,,,0.00,174,Wunderground v.1.15,2013-09-04 21:30:00,
2013-09-04 17:40:00,79.8,58.4,30.06,WNW,288,4.0,4.0,48,0.00,,,0.00,320,Wunderground v.1.15,2013-09-04 21:40:00,
2013-09-04 17:50:00,80.4,59.5,30.05,West,269,5.0,5.0,49,0.00,,,0.00,297,Wunderground v.1.15,2013-09-04 21:50:00,
2013-09-04 18:05:00,79.3,58.5,30.04,West,271,4.0,6.0,49,0.00,,,0.00,251,Wunderground v.1.15,2013-09-04 22:05:00,
2013-09-04 18:15:00,79.4,58.6,30.04,West,265,4.0,4.0,49,0.00,,,0.00,283,Wunderground v.1.15,2013-09-04 22:15:00,
2013-09-04 18:25:00,79.8,58.4,30.04,West,281,4.0,4.0,48,0.00,,,0.00,278,Wunderground v.1.15,2013-09-04 22:25:00,
2013-09-04 18:35:00,79.5,59.2,30.04,WNW,300,4.0,5.0,50,0.00,,,0.00,185,Wunderground v.1.15,2013-09-04 22:35:00,
2013-09-04 18:45:00,79.2,59.0,30.05,WNW,292,4.0,4.0,50,0.00,,,0.00,121,Wunderground v.1.15,2013-09-04 22:45:00,
2013-09-04 18:55:00,78.4,58.8,30.05,NW,305,6.0,6.0,51,0.00,,,0.00,135,Wunderground v.1.15,2013-09-04 22:55:00,
2013-09-04 19:05:00,78.1,59.0,30.05,NW,304,4.0,5.0,52,0.00,,,0.00,86,Wunderground v.1.15,2013-09-04 23:05:00,
2013-09-04 19:15:00,77.5,59.0,30.05,NW,306,4.0,4.0,53,0.00,,,0.00,91,Wunderground v.1.15,2013-09-04 23:15:00,
2013-09-04 19:25:00,77.1,58.6,30.05,NW,304,4.0,4.0,53,0.00,,,0.00,74,Wunderground v.1.15,2013-09-04 23:25:00,
2013-09-04 19:35:00,76.8,58.9,30.05,WNW,302,3.0,3.0,54,0.00,,,0.00,46,Wunderground v.1.15,2013-09-04 23:35:00,
2013-09-04 19:45:00,76.3,58.4,30.05,WNW,296,1.0,2.0,54,0.00,,,0.00,33,Wunderground v.1.15,2013-09-04 23:45:00,
2013-09-04 19:55:00,75.5,58.7,30.05,WNW,296,1.0,1.0,56,0.00,,,0.00,25,Wunderground v.1.15,2013-09-04 23:55:00,
2013-09-04 20:05:00,74.8,59.5,30.06,WNW,296,0.0,1.0,59,0.00,,,0.00,7,Wunderground v.1.15,2013-09-05 00:05:00,
2013-09-04 20:15:00,73.6,59.8,30.06,WNW,296,0.0,0.0,62,0.00,,,0.00,0,Wunderground v.1.15,2013-09-05 00:15:00,
2013-09-04 20:25:00,72.4,59.5,30.06,WNW,296,0.0,0.0,64,0.00,,,0.00,0,Wunderground v.1.15,2013-09-05 00:25:00,
2013-09-04 20:35:00,71.3,59.8,30.06,WNW,296,0.0,0.0,67,0.00,,,0.00,0,Wunderground v.1.15,2013-09-05 00:35:00,
2013-09-04 20:45:00,69.9,59.3,30.06,WNW,296,0.0,0.0,69,0.00,,,0.00,0,Wunderground v.1.15,2013-09-05 00:45:00,
2013-09-04 20:55:00,68.4,59.0,30.07,WNW,296,0.0,0.0,72,0.00,,,0.00,0,Wunderground v.1.15,2013-09-05 00:55:00,
2013-09-04 21:05:00,67.4,59.2,30.07,WNW,296,0.0,0.0,75,0.00,,,0.00,0,Wunderground v.1.15,2013-09-05 01:05:00,
2013-09-04 21:15:00,66.5,59.1,30.08,WNW,296,0.0,0.0,77,0.00,,,0.00,0,Wunderground v.1.15,2013-09-05 01:15:00,
2013-09-04 21:25:00,65.6,58.6,30.08,WNW,296,0.0,0.0,78,0.00,,,0.00,0,Wunderground v.1.15,2013-09-05 01:25:00,
2013-09-04 21:35:00,65.0,58.3,30.08,WNW,296,0.0,0.0,79,0.00,,,0.00,0,Wunderground v.1.15,2013-09-05 01:35:00,
2013-09-04 21:45:00,64.8,58.5,30.09,WNW,296,0.0,0.0,80,0.00,,,0.00,0,Wunderground v.1.15,2013-09-05 01:45:00,
2013-09-04 21:55:00,64.5,58.2,30.09,WNW,296,0.0,0.0,80,0.00,,,0.00,0,Wunderground v.1.15,2013-09-05 01:55:00,
2013-09-04 22:05:00,63.7,57.4,30.09,WNW,296,0.0,0.0,80,0.00,,,0.00,0,Wunderground v.1.15,2013-09-05 02:05:00,
2013-09-04 22:15:00,63.0,57.4,30.09,WNW,296,0.0,0.0,82,0.00,,,0.00,0,Wunderground v.1.15,2013-09-05 02:15:00,
2013-09-04 22:25:00,62.6,58.0,30.09,WNW,296,0.0,0.0,85,0.00,,,0.00,0,Wunderground v.1.15,2013-09-05 02:25:00,
2013-09-04 22:35:00,62.4,57.2,30.09,WNW,296,0.0,0.0,83,0.00,,,0.00,0,Wunderground v.1.15,2013-09-05 02:35:00,
2013-09-04 22:45:00,62.5,57.6,30.09,WNW,296,0.0,0.0,84,0.00,,,0.00,0,Wunderground v.1.15,2013-09-05 02:45:00,
2013-09-04 22:55:00,62.4,57.2,30.09,WNW,296,0.0,0.0,83,0.00,,,0.00,0,Wunderground v.1.15,2013-09-05 02:55:00,
2013-09-04 23:05:00,61.8,56.9,30.09,WNW,296,0.0,0.0,84,0.00,,,0.00,0,Wunderground v.1.15,2013-09-05 03:05:00,
2013-09-04 23:15:00,61.1,56.2,30.09,WNW,296,0.0,0.0,84,0.00,,,0.00,0,Wunderground v.1.15,2013-09-05 03:15:00,
2013-09-04 23:25:00,60.5,56.0,30.09,WNW,296,0.0,0.0,85,0.00,,,0.00,0,Wunderground v.1.15,2013-09-05 03:25:00,
2013-09-04 23:35:00,59.7,55.8,30.10,WNW,296,0.0,0.0,87,0.00,,,0.00,0,Wunderground v.1.15,2013-09-05 03:35:00,
2013-09-04 23:45:00,59.7,56.5,30.09,WNW,296,0.0,0.0,89,0.00,,,0.00,0,Wunderground v.1.15,2013-09-05 03:45:00,
2013-09-04 23:55:00,60.6,57.7,30.09,WNW,296,0.0,0.0,90,0.00,,,0.00,0,Wunderground v.1.15,2013-09-05 03:55:00,